createdAt,value
2023-04-11T02:26:29.419Z,72.40
2023-04-11T02:28:56.269Z,72.20
2023-04-11T02:31:23.162Z,72.30
2023-04-11T02:49:14.326Z,71.90
2023-04-11T02:51:41.310Z,71.80
2023-04-11T02:54:08.295Z,71.90
2023-04-11T04:28:11.434Z,71.80
2023-04-11T04:30:38.173Z,71.80
2023-04-11T04:33:04.841Z,71.80
2023-04-11T04:35:31.500Z,71.70
2023-04-11T04:38:06.101Z,71.60
2023-04-11T05:39:45.369Z,72.00
2023-04-11T05:42:12.053Z,72.00
2023-04-11T05:44:40.067Z,72.00
2023-04-11T05:47:06.727Z,72.10
2023-04-11T05:49:33.317Z,72.10
2023-04-11T05:59:32.888Z,72.00
2023-04-11T06:01:59.564Z,72.00
2023-04-11T06:04:26.557Z,72.00
2023-04-11T06:06:53.576Z,72.00
2023-04-11T06:17:02.408Z,71.80
2023-04-11T06:19:28.998Z,71.80
2023-04-11T06:21:55.661Z,72.00
2023-04-11T06:24:36.041Z,72.10
2023-04-11T06:27:03.470Z,72.10
2023-04-11T06:29:30.707Z,72.10
2023-04-11T06:31:58.692Z,72.00
2023-04-11T06:34:25.547Z,72.10
2023-04-11T06:52:16.990Z,72.10
2023-04-11T06:54:43.916Z,72.10
2023-04-11T06:57:10.574Z,72.30
2023-04-11T06:59:37.544Z,72.30
2023-04-11T07:02:04.329Z,72.30
2023-04-11T07:16:05.033Z,72.10
2023-04-11T07:18:31.800Z,72.20
2023-04-11T07:20:58.426Z,72.40
2023-04-11T07:23:25.101Z,72.50
2023-04-11T07:25:51.792Z,72.40
2023-04-11T07:28:18.423Z,72.30
2023-04-11T07:30:45.027Z,72.10
2023-04-11T07:33:11.681Z,72.00
2023-04-11T07:50:53.315Z,72.80
2023-04-11T07:53:21.471Z,73.00
2023-04-11T07:55:48.333Z,73.10
2023-04-11T07:58:15.254Z,73.10
2023-04-11T08:00:41.888Z,72.70
2023-04-11T08:03:10.271Z,72.80
2023-04-11T08:20:51.221Z,73.10
2023-04-11T08:23:19.618Z,72.90
2023-04-11T08:25:46.712Z,73.00
2023-04-11T08:28:13.410Z,73.40
2023-04-11T08:30:40.035Z,73.20
2023-04-11T08:33:07.231Z,72.90
2023-04-11T08:54:51.680Z,70.60
2023-04-11T08:57:31.314Z,70.90
2023-04-11T09:00:19.054Z,70.70
2023-04-11T09:03:06.772Z,70.80
2023-04-11T09:24:39.197Z,69.20
2023-04-11T09:27:15.640Z,69.70
2023-04-11T09:29:48.905Z,69.50
2023-04-11T09:32:36.071Z,68.00
2023-04-11T09:42:48.551Z,68.40
2023-04-11T09:45:19.993Z,67.80
2023-04-11T09:47:47.764Z,67.30
2023-04-11T09:50:15.572Z,69.10
2023-04-11T10:08:14.432Z,67.80
2023-04-11T10:10:43.994Z,67.00
2023-04-11T10:13:35.386Z,67.10
2023-04-11T10:16:08.369Z,67.60
2023-04-11T10:18:56.095Z,68.00
2023-04-11T10:21:34.781Z,67.10
2023-04-11T10:24:18.277Z,67.90
2023-04-11T10:27:03.668Z,68.50
2023-04-11T10:29:33.542Z,68.00
2023-04-11T10:32:16.509Z,67.70
2023-04-11T10:34:52.347Z,66.20
2023-04-11T10:49:03.087Z,65.30
2023-04-11T10:51:33.764Z,67.00
2023-04-11T10:54:01.947Z,65.60
2023-04-11T11:11:42.928Z,67.40
2023-04-11T11:14:09.749Z,68.20
2023-04-11T11:16:36.547Z,67.80
2023-04-11T11:19:06.318Z,66.00
2023-04-11T11:57:51.680Z,70.30
2023-04-11T12:54:14.843Z,72.10
2023-04-11T12:56:41.473Z,70.20
2023-04-11T12:59:08.276Z,70.00
2023-04-11T13:01:34.948Z,69.00
2023-04-11T13:04:01.805Z,67.00
2023-04-11T13:06:29.667Z,68.40
2023-04-11T13:28:12.565Z,67.80
2023-04-11T13:30:39.244Z,70.00
2023-04-11T13:33:05.942Z,67.60
2023-04-11T13:35:32.632Z,68.70
2023-04-11T13:37:59.414Z,66.10
2023-04-11T13:40:26.026Z,67.80
2023-04-11T13:42:54.490Z,66.10
2023-04-11T15:14:29.371Z,72.20
2023-04-11T15:16:56.766Z,71.80
2023-04-11T15:19:23.528Z,69.90
2023-04-11T15:21:50.100Z,70.00
2023-04-11T15:24:17.014Z,69.40
2023-04-11T15:38:06.796Z,69.30
2023-04-11T15:40:33.451Z,67.80
2023-04-11T15:43:01.191Z,68.70
2023-04-11T15:45:28.102Z,66.90
2023-04-11T15:47:57.699Z,65.20
2023-04-11T16:01:48.033Z,67.60
2023-04-11T16:04:16.403Z,67.20
2023-04-11T16:06:44.088Z,66.10
2023-04-11T16:09:10.902Z,67.40
2023-04-11T16:19:28.165Z,65.50
2023-04-11T16:24:51.638Z,64.60
2023-04-11T17:09:41.364Z,68.50
2023-04-11T17:12:07.963Z,68.50
2023-04-11T17:14:36.672Z,68.40
2023-04-11T17:17:03.609Z,68.10
2023-04-11T17:51:49.080Z,69.80
2023-04-11T17:54:28.441Z,70.10
2023-04-11T17:56:56.196Z,69.60
2023-04-11T18:10:48.881Z,69.60
2023-04-11T18:13:15.465Z,69.20
2023-04-11T18:15:42.265Z,69.20
2023-04-11T18:42:58.660Z,69.50
2023-04-11T18:45:25.781Z,69.70
2023-04-11T18:47:53.006Z,69.60
2023-04-11T20:08:40.178Z,70.70
2023-04-11T20:11:06.956Z,71.00
2023-04-11T20:13:33.804Z,70.80
2023-04-11T20:16:01.145Z,70.90
2023-04-11T20:41:56.673Z,70.90
2023-04-11T20:44:23.902Z,71.00
2023-04-11T20:46:51.107Z,70.90
2023-04-11T20:49:18.221Z,70.90
2023-04-11T20:51:47.911Z,70.90
2023-04-11T20:54:14.610Z,70.80
2023-04-11T20:56:42.743Z,70.70
2023-04-11T20:59:09.581Z,70.70
2023-04-11T21:24:43.479Z,70.90
2023-04-11T21:27:10.326Z,71.10
2023-04-11T21:29:37.039Z,71.10
2023-04-11T21:32:04.380Z,71.10
2023-04-11T22:40:17.656Z,71.60
2023-04-11T22:42:46.884Z,71.60
2023-04-11T22:45:13.622Z,71.70
2023-04-11T22:47:45.488Z,71.70
2023-04-11T22:50:13.621Z,71.60
